Time;durP1;ratioP1;P1;durP2;ratioP2;P2;SDS_P1;SDS_P2;PMS_P1;PMS_P2;Temp;Humidity;BMP_temperature;BMP_pressure;BME280_temperature;BME280_humidity;BME280_pressure;Samples;Min_cycle;Max_cycle;Signal;HPM_P1;HPM_P2
2022/09/28 00:00:53;;;;;;;;;;;9.90;99.90;;;;;;5005384;28;19910;-86
2022/09/28 00:03:18;;;;;;;;;;;9.90;99.90;;;;;;5007486;28;19944;-86
2022/09/28 00:05:44;;;;;;;;;;;10.10;99.90;;;;;;5008282;28;19947;-86
2022/09/28 00:08:09;;;;;;;;;;;10.10;99.90;;;;;;5008037;28;19914;-86
2022/09/28 00:10:35;;;;;;;;;;;10.10;99.90;;;;;;5007981;28;19910;-87
2022/09/28 00:13:01;;;;;;;;;;;10.20;99.90;;;;;;5006971;28;20412;-86
2022/09/28 00:15:27;;;;;;;;;;;10.20;99.90;;;;;;5004102;28;19909;-86
2022/09/28 00:17:52;;;;;;;;;;;10.20;99.90;;;;;;5006084;28;19941;-86
2022/09/28 00:20:18;;;;;;;;;;;10.10;99.90;;;;;;5007724;28;19913;-86
2022/09/28 00:22:44;;;;;;;;;;;10.20;99.90;;;;;;5006645;28;19909;-86
2022/09/28 00:25:09;;;;;;;;;;;10.20;99.90;;;;;;5006275;28;19909;-86
2022/09/28 00:27:34;;;;;;;;;;;10.20;99.90;;;;;;5006836;28;19910;-86
2022/09/28 00:30:00;;;;;;;;;;;10.30;99.90;;;;;;5003295;28;20424;-87
2022/09/28 00:32:26;;;;;;;;;;;10.30;99.90;;;;;;5013049;28;19964;-87
2022/09/28 00:34:52;;;;;;;;;;;10.30;99.90;;;;;;4995293;28;20315;-86
2022/09/28 00:37:18;;;;;;;;;;;10.40;99.90;;;;;;4995177;28;19968;-86
2022/09/28 00:39:44;;;;;;;;;;;10.40;99.90;;;;;;5012988;28;19917;-87
2022/09/28 00:42:14;;;;;;;;;;;10.40;99.90;;;;;;4995392;28;19979;-87
2022/09/28 00:44:45;;;;;;;;;;;10.40;99.90;;;;;;4995317;28;20381;-87
2022/09/28 00:47:18;;;;;;;;;;;10.40;99.90;;;;;;4995229;28;19959;-86
2022/09/28 00:49:46;;;;;;;;;;;10.40;99.90;;;;;;4995256;28;20004;-86
2022/09/28 00:52:14;;;;;;;;;;;10.40;99.90;;;;;;4995283;28;19917;-86
2022/09/28 00:54:42;;;;;;;;;;;10.40;99.90;;;;;;4995489;28;19910;-87
2022/09/28 00:57:08;;;;;;;;;;;10.40;99.90;;;;;;4995375;28;20285;-87
2022/09/28 00:59:33;;;;;;;;;;;10.40;99.90;;;;;;4995266;28;20412;-87
2022/09/28 01:01:59;;;;;;;;;;;10.40;99.90;;;;;;4995287;28;20004;-86
2022/09/28 01:04:25;;;;;;;;;;;10.40;99.90;;;;;;5012617;28;19909;-86
2022/09/28 01:06:51;;;;;;;;;;;10.40;99.90;;;;;;4996975;28;19913;-86
2022/09/28 01:09:17;;;;;;;;;;;10.40;99.90;;;;;;5016120;28;19909;-87
2022/09/28 01:11:42;;;;;;;;;;;10.40;99.90;;;;;;4998673;28;19910;-87
2022/09/28 01:14:10;;;;;;;;;;;10.40;99.90;;;;;;5016112;28;19910;-87
2022/09/28 01:16:42;;;;;;;;;;;10.30;99.90;;;;;;4998389;28;19913;-86
2022/09/28 01:19:16;;;;;;;;;;;10.30;99.90;;;;;;4998564;28;19964;-85
2022/09/28 01:21:49;;;;;;;;;;;10.30;99.90;;;;;;5015945;28;20021;-86
2022/09/28 01:24:14;;;;;;;;;;;10.20;99.90;;;;;;4998351;28;19961;-87
2022/09/28 01:26:47;;;;;;;;;;;10.10;99.90;;;;;;4998065;28;19921;-85
2022/09/28 01:29:18;;;;;;;;;;;10.00;99.90;;;;;;4998302;28;19918;-86
2022/09/28 01:31:46;;;;;;;;;;;10.00;99.90;;;;;;4998221;28;20353;-86
2022/09/28 01:34:18;;;;;;;;;;;9.90;99.90;;;;;;5015743;28;19967;-86
2022/09/28 01:36:46;;;;;;;;;;;9.90;99.90;;;;;;4997764;28;19917;-86
2022/09/28 01:39:14;;;;;;;;;;;9.90;99.90;;;;;;4997985;28;19916;-86
2022/09/28 01:41:41;;;;;;;;;;;10.10;99.90;;;;;;4997973;28;19909;-86
2022/09/28 01:44:11;;;;;;;;;;;10.00;99.90;;;;;;4998046;28;19956;-86
2022/09/28 01:46:40;;;;;;;;;;;10.10;99.90;;;;;;4997548;28;19909;-86
2022/09/28 01:49:15;;;;;;;;;;;10.10;99.90;;;;;;5015339;28;19917;-88
2022/09/28 01:51:42;;;;;;;;;;;10.20;99.90;;;;;;4997880;28;20012;-86
2022/09/28 01:54:12;;;;;;;;;;;10.20;99.90;;;;;;4997770;28;19909;-86
2022/09/28 01:56:45;;;;;;;;;;;10.20;99.90;;;;;;4997451;28;19940;-86
2022/09/28 01:59:19;;;;;;;;;;;10.20;99.90;;;;;;4997571;28;19909;-86
2022/09/28 02:01:48;;;;;;;;;;;10.20;99.90;;;;;;4997502;28;19953;-86
2022/09/28 02:04:31;;;;;;;;;;;10.20;99.90;;;;;;5015123;28;19992;-86
2022/09/28 02:07:00;;;;;;;;;;;10.20;99.90;;;;;;4997300;28;19913;-86
2022/09/28 02:09:32;;;;;;;;;;;10.20;99.90;;;;;;4997485;28;19910;-85
2022/09/28 02:12:00;;;;;;;;;;;10.20;99.90;;;;;;4997320;28;19964;-86
2022/09/28 02:14:27;;;;;;;;;;;10.20;99.90;;;;;;4997299;28;20288;-87
2022/09/28 02:16:53;;;;;;;;;;;10.20;99.90;;;;;;4996885;28;19914;-86
2022/09/28 02:19:26;;;;;;;;;;;10.20;99.90;;;;;;4997192;28;19975;-86
2022/09/28 02:21:54;;;;;;;;;;;10.20;99.90;;;;;;4997206;28;19983;-85
2022/09/28 02:24:23;;;;;;;;;;;10.30;99.90;;;;;;4997343;28;19909;-86
2022/09/28 02:26:49;;;;;;;;;;;10.30;99.90;;;;;;4996883;28;19909;-86
2022/09/28 02:29:15;;;;;;;;;;;10.30;99.90;;;;;;4997402;28;20403;-86
2022/09/28 02:31:41;;;;;;;;;;;10.30;99.90;;;;;;4997021;28;19914;-86
2022/09/28 02:34:06;;;;;;;;;;;10.40;99.90;;;;;;5014528;28;19910;-85
2022/09/28 02:36:32;;;;;;;;;;;10.40;99.90;;;;;;4996661;28;19960;-86
2022/09/28 02:39:01;;;;;;;;;;;10.40;99.90;;;;;;4996953;28;20369;-86
2022/09/28 02:41:46;;;;;;;;;;;10.30;99.90;;;;;;4996812;28;20394;-86
2022/09/28 02:44:30;;;;;;;;;;;10.40;99.90;;;;;;4996765;28;20296;-86
2022/09/28 02:46:56;;;;;;;;;;;10.40;99.90;;;;;;4996538;28;19913;-86
2022/09/28 02:49:21;;;;;;;;;;;10.40;99.90;;;;;;4996622;28;19917;-85
2022/09/28 02:52:06;;;;;;;;;;;10.40;99.90;;;;;;4996548;28;19914;-86
2022/09/28 02:54:50;;;;;;;;;;;10.40;99.90;;;;;;4996497;28;19917;-86
2022/09/28 02:57:41;;;;;;;;;;;10.40;99.90;;;;;;4996160;28;19920;-85
2022/09/28 03:00:10;;;;;;;;;;;10.50;99.90;;;;;;4996454;28;19963;-86
2022/09/28 03:02:54;;;;;;;;;;;10.50;99.90;;;;;;4996296;28;19916;-86
2022/09/28 03:05:39;;;;;;;;;;;10.50;99.90;;;;;;5013810;28;19917;-86
2022/09/28 03:08:14;;;;;;;;;;;10.60;99.90;;;;;;4996304;28;19909;-86
2022/09/28 03:10:48;;;;;;;;;;;10.60;99.90;;;;;;4996474;28;20280;-86
2022/09/28 03:13:15;;;;;;;;;;;10.50;99.90;;;;;;4996256;28;19916;-86
2022/09/28 03:15:40;;;;;;;;;;;10.50;99.90;;;;;;4995985;28;19920;-86
2022/09/28 03:18:06;;;;;;;;;;;10.50;99.90;;;;;;5013598;28;19913;-86
2022/09/28 03:20:32;;;;;;;;;;;10.50;99.90;;;;;;4996171;28;19913;-85
2022/09/28 03:22:59;;;;;;;;;;;10.50;99.90;;;;;;4996120;28;20001;-86
2022/09/28 03:25:24;;;;;;;;;;;10.40;99.90;;;;;;5013495;28;19976;-86
2022/09/28 03:27:50;;;;;;;;;;;10.40;99.90;;;;;;4995822;28;19956;-87
2022/09/28 03:30:15;;;;;;;;;;;10.30;99.90;;;;;;4995506;28;19921;-86
2022/09/28 03:32:41;;;;;;;;;;;10.20;99.90;;;;;;5013612;28;19917;-86
2022/09/28 03:35:08;;;;;;;;;;;10.20;99.90;;;;;;4995917;28;20348;-86
2022/09/28 03:37:33;;;;;;;;;;;10.20;99.90;;;;;;4995564;28;20055;-86
2022/09/28 03:39:59;;;;;;;;;;;10.20;99.90;;;;;;4995961;28;19948;-87
2022/09/28 03:42:24;;;;;;;;;;;10.10;99.90;;;;;;4995864;28;19910;-87
2022/09/28 03:44:50;;;;;;;;;;;10.10;99.90;;;;;;4995657;28;19957;-86
2022/09/28 03:47:16;;;;;;;;;;;10.10;99.90;;;;;;4995388;28;20337;-86
2022/09/28 03:49:42;;;;;;;;;;;10.10;99.90;;;;;;4995088;28;20284;-86
2022/09/28 03:52:08;;;;;;;;;;;10.10;99.90;;;;;;4995856;28;19910;-86
2022/09/28 03:54:33;;;;;;;;;;;10.10;99.90;;;;;;4995577;28;19909;-86
2022/09/28 03:56:59;;;;;;;;;;;10.10;99.90;;;;;;5012898;28;20316;-86
2022/09/28 03:59:24;;;;;;;;;;;10.00;99.90;;;;;;4995758;28;19917;-86
2022/09/28 04:01:50;;;;;;;;;;;10.00;99.90;;;;;;4995640;28;19973;-86
2022/09/28 04:04:16;;;;;;;;;;;10.00;99.90;;;;;;5013134;28;19909;-86
2022/09/28 04:06:41;;;;;;;;;;;10.10;99.90;;;;;;4995309;28;19910;-86
2022/09/28 04:09:07;;;;;;;;;;;10.10;99.90;;;;;;4995616;28;19967;-86
2022/09/28 04:11:33;;;;;;;;;;;10.20;99.90;;;;;;4995667;28;20000;-87
2022/09/28 04:13:58;;;;;;;;;;;10.20;99.90;;;;;;5013051;28;20284;-86
2022/09/28 04:16:23;;;;;;;;;;;10.20;99.90;;;;;;5012742;28;19975;-86
2022/09/28 04:18:49;;;;;;;;;;;10.20;99.90;;;;;;4995462;28;19918;-86
2022/09/28 04:21:16;;;;;;;;;;;10.30;99.90;;;;;;5013150;28;19909;-86
2022/09/28 04:23:42;;;;;;;;;;;10.40;99.90;;;;;;4995528;28;19916;-87
2022/09/28 04:26:12;;;;;;;;;;;10.40;99.90;;;;;;5012670;28;20575;-86
2022/09/28 04:31:22;;;;;;;;;;;10.40;99.90;;;;;;5017318;28;19932;-85
2022/09/28 04:33:48;;;;;;;;;;;10.30;99.90;;;;;;5001663;28;20356;-85
2022/09/28 04:36:13;;;;;;;;;;;10.30;99.90;;;;;;5017691;28;19917;-85
2022/09/28 04:38:42;;;;;;;;;;;10.30;99.90;;;;;;5000511;28;19964;-86
2022/09/28 04:41:07;;;;;;;;;;;10.30;99.90;;;;;;5001481;28;20308;-85
2022/09/28 04:43:33;;;;;;;;;;;10.30;99.90;;;;;;5005113;28;19967;-85
2022/09/28 04:45:59;;;;;;;;;;;10.40;99.90;;;;;;5021271;28;19910;-86
2022/09/28 04:48:25;;;;;;;;;;;10.30;99.90;;;;;;5003064;28;19941;-85
2022/09/28 04:50:54;;;;;;;;;;;10.20;99.90;;;;;;5004032;28;19984;-85
2022/09/28 04:53:20;;;;;;;;;;;10.30;99.90;;;;;;5003430;28;19910;-86
2022/09/28 04:55:53;;;;;;;;;;;10.30;99.90;;;;;;5002826;28;19916;-86
2022/09/28 04:58:19;;;;;;;;;;;10.30;99.90;;;;;;5003247;28;19920;-85
2022/09/28 05:00:44;;;;;;;;;;;10.30;99.90;;;;;;5002448;28;19973;-86
2022/09/28 05:03:10;;;;;;;;;;;10.30;99.90;;;;;;5001001;28;19979;-86
2022/09/28 05:05:35;;;;;;;;;;;10.20;99.90;;;;;;5001558;28;19916;-87
2022/09/28 05:08:01;;;;;;;;;;;10.20;99.90;;;;;;5001768;28;19921;-85
2022/09/28 05:10:26;;;;;;;;;;;10.20;99.90;;;;;;5001437;28;19913;-85
2022/09/28 05:12:52;;;;;;;;;;;10.30;99.90;;;;;;5001894;28;19910;-85
2022/09/28 05:15:17;;;;;;;;;;;10.20;99.90;;;;;;5000500;28;19996;-87
2022/09/28 05:17:43;;;;;;;;;;;10.30;99.90;;;;;;4999891;28;19913;-86
2022/09/28 05:20:08;;;;;;;;;;;10.20;99.90;;;;;;5000214;28;20424;-86
2022/09/28 05:22:34;;;;;;;;;;;10.20;99.90;;;;;;5000662;28;19914;-86
2022/09/28 05:25:01;;;;;;;;;;;10.10;99.90;;;;;;4999661;28;19916;-86
2022/09/28 05:27:27;;;;;;;;;;;10.10;99.90;;;;;;4999792;28;19909;-85
2022/09/28 05:29:52;;;;;;;;;;;10.10;99.90;;;;;;4999725;28;19910;-86
2022/09/28 05:32:18;;;;;;;;;;;10.10;99.90;;;;;;5000021;28;19909;-86
2022/09/28 05:34:43;;;;;;;;;;;10.00;99.90;;;;;;4999382;28;19916;-86
2022/09/28 05:37:08;;;;;;;;;;;9.90;99.90;;;;;;4999293;28;19925;-86
2022/09/28 05:39:34;;;;;;;;;;;9.90;99.90;;;;;;4998824;28;20365;-86
2022/09/28 05:41:59;;;;;;;;;;;10.00;99.90;;;;;;5016171;28;19914;-86
2022/09/28 05:44:25;;;;;;;;;;;10.00;99.90;;;;;;4998500;28;19910;-86
2022/09/28 05:46:51;;;;;;;;;;;10.10;99.90;;;;;;4998077;28;20052;-86
2022/09/28 05:49:17;;;;;;;;;;;10.10;99.90;;;;;;4998542;28;19909;-86
2022/09/28 05:51:42;;;;;;;;;;;10.10;99.90;;;;;;5015343;28;19916;-86
2022/09/28 05:54:08;;;;;;;;;;;10.10;99.90;;;;;;5015791;28;19916;-87
2022/09/28 05:56:33;;;;;;;;;;;10.00;99.90;;;;;;4997702;28;20340;-86
2022/09/28 05:58:59;;;;;;;;;;;10.00;99.90;;;;;;5015578;28;19936;-87
2022/09/28 06:01:24;;;;;;;;;;;10.00;99.90;;;;;;4998010;28;19960;-87
2022/09/28 06:03:50;;;;;;;;;;;10.00;99.90;;;;;;4998329;28;19913;-86
2022/09/28 06:06:15;;;;;;;;;;;10.00;99.90;;;;;;5015188;28;19916;-86
2022/09/28 06:08:44;;;;;;;;;;;10.00;99.90;;;;;;4997792;28;19917;-87
2022/09/28 06:11:11;;;;;;;;;;;9.90;99.90;;;;;;5015560;28;19914;-86
2022/09/28 06:13:37;;;;;;;;;;;9.90;99.90;;;;;;5015303;28;19909;-87
2022/09/28 06:16:03;;;;;;;;;;;9.90;99.90;;;;;;5015087;28;19916;-88
2022/09/28 06:18:29;;;;;;;;;;;9.90;99.90;;;;;;4997840;28;19913;-87
2022/09/28 06:20:54;;;;;;;;;;;9.90;99.90;;;;;;4997574;28;19932;-87
2022/09/28 06:23:20;;;;;;;;;;;9.90;99.90;;;;;;4997828;28;19964;-88
2022/09/28 06:25:45;;;;;;;;;;;9.90;99.90;;;;;;4997329;28;20369;-87
2022/09/28 06:28:12;;;;;;;;;;;9.90;99.90;;;;;;4997332;28;19975;-87
2022/09/28 06:30:38;;;;;;;;;;;9.90;99.90;;;;;;4997289;28;19916;-87
2022/09/28 06:33:05;;;;;;;;;;;9.90;99.90;;;;;;4997258;28;20003;-86
2022/09/28 06:35:31;;;;;;;;;;;10.00;99.90;;;;;;4996948;28;19913;-88
2022/09/28 06:37:59;;;;;;;;;;;10.00;99.90;;;;;;4996801;28;20016;-88
2022/09/28 06:40:25;;;;;;;;;;;10.00;99.90;;;;;;4997360;28;19910;-87
2022/09/28 06:43:16;;;;;;;;;;;10.00;99.90;;;;;;4997056;28;19914;-87
2022/09/28 06:45:42;;;;;;;;;;;10.10;99.90;;;;;;4994911;28;19909;-87
2022/09/28 06:48:08;;;;;;;;;;;10.20;99.90;;;;;;4997048;28;20282;-88
2022/09/28 06:50:36;;;;;;;;;;;10.20;99.90;;;;;;5014492;28;19924;-86
2022/09/28 06:53:02;;;;;;;;;;;10.20;99.90;;;;;;4996937;28;19968;-86
2022/09/28 06:55:28;;;;;;;;;;;10.20;99.90;;;;;;5014276;28;20354;-88
2022/09/28 06:57:58;;;;;;;;;;;10.20;99.90;;;;;;4996475;28;19967;-87
2022/09/28 07:00:24;;;;;;;;;;;10.20;99.90;;;;;;4996882;28;19936;-87
2022/09/28 07:03:06;;;;;;;;;;;10.30;99.90;;;;;;5012312;28;20139;-87
2022/09/28 07:05:33;;;;;;;;;;;10.20;99.90;;;;;;4995772;28;19917;-89
2022/09/28 07:08:00;;;;;;;;;;;10.30;99.90;;;;;;5013859;28;19910;-87
2022/09/28 07:10:27;;;;;;;;;;;10.30;99.90;;;;;;4996357;28;19909;-87
2022/09/28 07:12:53;;;;;;;;;;;10.40;99.90;;;;;;4996294;28;19940;-87
2022/09/28 07:15:19;;;;;;;;;;;10.40;99.90;;;;;;4996089;28;19909;-87
2022/09/28 07:17:44;;;;;;;;;;;10.50;99.90;;;;;;4996015;28;19993;-86
2022/09/28 07:20:10;;;;;;;;;;;10.60;99.90;;;;;;4996206;28;19921;-87
2022/09/28 07:22:35;;;;;;;;;;;10.70;99.90;;;;;;4996128;28;19909;-88
2022/09/28 07:25:01;;;;;;;;;;;10.70;99.90;;;;;;4996043;28;19924;-87
2022/09/28 07:27:27;;;;;;;;;;;10.80;99.90;;;;;;4995806;28;19968;-87
2022/09/28 07:29:52;;;;;;;;;;;10.80;99.90;;;;;;4995893;28;19910;-88
2022/09/28 07:32:18;;;;;;;;;;;10.90;99.90;;;;;;4996037;28;20377;-88
2022/09/28 07:34:44;;;;;;;;;;;10.90;99.90;;;;;;4995868;28;19909;-87
2022/09/28 07:37:11;;;;;;;;;;;10.90;99.90;;;;;;5013080;28;20400;-87
2022/09/28 07:41:10;;;;;;;;;;;11.00;99.90;;;;;;4995818;28;20319;-87
2022/09/28 07:42:23;;;;;;;;;;;11.00;99.90;;;;;;5013273;28;19910;-87
2022/09/28 07:44:48;;;;;;;;;;;11.00;99.90;;;;;;4995818;28;19910;-88
2022/09/28 07:47:14;;;;;;;;;;;11.10;99.90;;;;;;4995568;28;19910;-87
2022/09/28 07:49:39;;;;;;;;;;;11.20;99.90;;;;;;4995656;28;20383;-87
2022/09/28 07:52:05;;;;;;;;;;;11.20;99.90;;;;;;4995685;28;19917;-87
2022/09/28 07:54:30;;;;;;;;;;;11.30;99.90;;;;;;4995539;28;19959;-87
2022/09/28 07:56:56;;;;;;;;;;;11.30;99.90;;;;;;5013033;28;19913;-86
2022/09/28 07:59:21;;;;;;;;;;;11.30;99.90;;;;;;4990216;28;20569;-86
2022/09/28 08:01:50;;;;;;;;;;;11.40;99.90;;;;;;4994757;28;19909;-88
2022/09/28 08:04:16;;;;;;;;;;;11.60;99.90;;;;;;4995566;28;19937;-86
2022/09/28 08:06:42;;;;;;;;;;;11.60;99.90;;;;;;4996259;28;19972;-87
2022/09/28 08:09:08;;;;;;;;;;;11.60;99.90;;;;;;4995817;28;19968;-88
2022/09/28 08:11:33;;;;;;;;;;;11.60;99.90;;;;;;5010275;28;19921;-88
2022/09/28 08:13:59;;;;;;;;;;;11.70;99.90;;;;;;5014985;28;19909;-88
2022/09/28 08:16:26;;;;;;;;;;;11.80;99.90;;;;;;5017731;28;20387;-88
2022/09/28 08:18:52;;;;;;;;;;;11.90;99.90;;;;;;5019061;28;20439;-87
2022/09/28 08:24:03;;;;;;;;;;;12.00;99.90;;;;;;5036927;28;19954;-86
2022/09/28 08:26:28;;;;;;;;;;;12.10;99.90;;;;;;5018071;28;19909;-88
2022/09/28 08:28:54;;;;;;;;;;;12.30;99.90;;;;;;5018923;28;19916;-87
2022/09/28 08:31:19;;;;;;;;;;;12.30;99.90;;;;;;5019732;28;19920;-87
2022/09/28 08:33:45;;;;;;;;;;;12.20;99.90;;;;;;5037268;28;19915;-85
2022/09/28 08:36:10;;;;;;;;;;;12.10;99.90;;;;;;5019320;28;20320;-86
2022/09/28 08:38:36;;;;;;;;;;;12.30;99.90;;;;;;5018941;28;20007;-87
2022/09/28 08:41:03;;;;;;;;;;;12.40;99.90;;;;;;5018544;28;19916;-88
2022/09/28 08:43:43;;;;;;;;;;;12.40;99.90;;;;;;5019007;28;19916;-87
2022/09/28 08:46:10;;;;;;;;;;;12.40;99.90;;;;;;5019175;28;19916;-83
2022/09/28 08:48:44;;;;;;;;;;;12.30;99.90;;;;;;5018765;28;19909;-86
2022/09/28 08:51:16;;;;;;;;;;;12.50;99.90;;;;;;5018979;28;19916;-87
2022/09/28 08:53:49;;;;;;;;;;;12.60;99.90;;;;;;5018594;28;19992;-87
2022/09/28 08:56:20;;;;;;;;;;;12.60;99.90;;;;;;5018251;28;19909;-86
2022/09/28 08:58:50;;;;;;;;;;;12.70;99.90;;;;;;4996940;28;19957;-88
2022/09/28 09:01:17;;;;;;;;;;;12.80;99.90;;;;;;5018045;28;19909;-88
2022/09/28 09:03:46;;;;;;;;;;;12.80;99.90;;;;;;5036049;28;20331;-87
2022/09/28 09:06:27;;;;;;;;;;;13.00;99.90;;;;;;5017689;28;19909;-88
2022/09/28 09:09:08;;;;;;;;;;;13.20;99.90;;;;;;5018278;28;19909;-87
2022/09/28 09:11:44;;;;;;;;;;;13.30;99.90;;;;;;5017561;28;19909;-88
2022/09/28 09:14:28;;;;;;;;;;;13.30;99.90;;;;;;5017733;28;20395;-87
2022/09/28 09:16:57;;;;;;;;;;;13.40;99.90;;;;;;5017663;28;19913;-87
2022/09/28 09:19:34;;;;;;;;;;;13.40;99.90;;;;;;5018251;28;19909;-87
2022/09/28 09:22:16;;;;;;;;;;;13.50;99.90;;;;;;5018666;28;19909;-87
2022/09/28 09:24:49;;;;;;;;;;;13.70;99.90;;;;;;5018667;28;19915;-88
2022/09/28 09:27:26;;;;;;;;;;;13.80;99.90;;;;;;5016711;28;19916;-89
2022/09/28 09:29:58;;;;;;;;;;;13.90;99.90;;;;;;5017821;28;19917;-89
2022/09/28 09:32:36;;;;;;;;;;;13.90;99.90;;;;;;5018092;28;19963;-89
2022/09/28 09:35:04;;;;;;;;;;;13.90;99.90;;;;;;5017829;28;19909;-88
2022/09/28 09:37:39;;;;;;;;;;;14.00;99.90;;;;;;5017045;28;19999;-86
2022/09/28 09:40:07;;;;;;;;;;;14.00;99.90;;;;;;5018373;28;19910;-89
2022/09/28 09:42:40;;;;;;;;;;;13.90;99.90;;;;;;5018157;28;19909;-87
2022/09/28 09:45:05;;;;;;;;;;;13.60;99.90;;;;;;5019757;28;19909;-88
2022/09/28 09:47:35;;;;;;;;;;;13.70;99.90;;;;;;5000211;28;20390;-88
2022/09/28 09:50:16;;;;;;;;;;;13.80;99.90;;;;;;4998043;28;19914;-89
2022/09/28 09:52:47;;;;;;;;;;;13.90;99.90;;;;;;5015522;28;19916;-88
2022/09/28 09:55:15;;;;;;;;;;;13.80;99.90;;;;;;5015379;28;19917;-88
2022/09/28 09:57:46;;;;;;;;;;;13.90;99.90;;;;;;5014994;28;20016;-88
2022/09/28 10:00:13;;;;;;;;;;;14.00;99.90;;;;;;4997833;28;19909;-90
2022/09/28 10:02:38;;;;;;;;;;;13.80;99.90;;;;;;4997898;28;19910;-87
2022/09/28 10:05:10;;;;;;;;;;;13.80;99.90;;;;;;4997852;28;20276;-88
2022/09/28 10:07:42;;;;;;;;;;;13.70;99.90;;;;;;4997587;28;19909;-86
2022/09/28 10:10:13;;;;;;;;;;;13.60;99.90;;;;;;4997571;28;19910;-85
2022/09/28 10:12:39;;;;;;;;;;;13.40;99.90;;;;;;4997274;28;20043;-86
2022/09/28 10:15:06;;;;;;;;;;;13.30;99.90;;;;;;4997297;28;19968;-86
2022/09/28 10:17:33;;;;;;;;;;;13.30;99.90;;;;;;4997138;28;19919;-86
2022/09/28 10:19:59;;;;;;;;;;;13.40;99.90;;;;;;4997822;28;19916;-87
2022/09/28 10:22:26;;;;;;;;;;;13.50;99.90;;;;;;4997232;28;19909;-86
2022/09/28 10:24:55;;;;;;;;;;;13.50;99.90;;;;;;4997104;28;19909;-87
2022/09/28 10:27:29;;;;;;;;;;;13.70;99.90;;;;;;4996919;28;20376;-87
2022/09/28 10:30:15;;;;;;;;;;;13.90;99.90;;;;;;4997385;28;20409;-86
2022/09/28 10:32:45;;;;;;;;;;;13.90;99.90;;;;;;4996521;28;19913;-87
2022/09/28 10:37:54;;;;;;;;;;;13.80;99.90;;;;;;5012688;28;19925;-87
2022/09/28 10:40:39;;;;;;;;;;;13.80;99.90;;;;;;4997187;28;19953;-88
2022/09/28 10:43:07;;;;;;;;;;;13.70;99.90;;;;;;5007356;28;20000;-88
2022/09/28 10:45:34;;;;;;;;;;;13.80;99.90;;;;;;4996902;28;19909;-88
2022/09/28 10:48:00;;;;;;;;;;;13.90;99.90;;;;;;4997069;28;20273;-88
2022/09/28 10:50:26;;;;;;;;;;;13.80;99.90;;;;;;4997016;28;20334;-87
2022/09/28 10:52:52;;;;;;;;;;;13.90;99.90;;;;;;5014407;28;19909;-87
2022/09/28 10:55:29;;;;;;;;;;;13.90;99.90;;;;;;4996450;28;20091;-87
2022/09/28 10:57:55;;;;;;;;;;;13.90;99.90;;;;;;4996789;28;20002;-88
2022/09/28 11:00:31;;;;;;;;;;;13.90;99.90;;;;;;5014588;28;19941;-87
2022/09/28 11:02:57;;;;;;;;;;;14.00;99.90;;;;;;5014633;28;19961;-87
2022/09/28 11:05:26;;;;;;;;;;;14.00;99.90;;;;;;5014443;28;19909;-88
2022/09/28 11:07:54;;;;;;;;;;;14.00;99.90;;;;;;4996880;28;19916;-87
2022/09/28 11:10:24;;;;;;;;;;;14.10;99.90;;;;;;4996871;28;19917;-87
2022/09/28 11:12:51;;;;;;;;;;;14.20;99.90;;;;;;4997096;28;20433;-87
2022/09/28 11:15:27;;;;;;;;;;;14.40;99.90;;;;;;4996368;28;20392;-87
2022/09/28 11:17:53;;;;;;;;;;;14.50;99.90;;;;;;4996303;28;19932;-85
2022/09/28 11:20:28;;;;;;;;;;;14.70;99.90;;;;;;4996929;28;20318;-87
2022/09/28 11:22:54;;;;;;;;;;;14.90;99.90;;;;;;4996880;28;19909;-87
2022/09/28 11:25:22;;;;;;;;;;;15.10;99.90;;;;;;4996492;28;19910;-88
2022/09/28 11:27:50;;;;;;;;;;;15.30;99.90;;;;;;4996560;28;19909;-88
2022/09/28 11:30:22;;;;;;;;;;;15.40;99.90;;;;;;4996290;28;20323;-87
2022/09/28 11:32:48;;;;;;;;;;;15.40;99.90;;;;;;5014090;28;20005;-87
2022/09/28 11:35:19;;;;;;;;;;;15.40;99.90;;;;;;4996268;28;19909;-88
2022/09/28 11:38:05;;;;;;;;;;;15.30;99.90;;;;;;4996167;28;19917;-87
2022/09/28 11:40:30;;;;;;;;;;;15.30;99.90;;;;;;4995601;28;19917;-87
2022/09/28 11:42:56;;;;;;;;;;;15.40;99.90;;;;;;4996571;28;19913;-87
2022/09/28 11:45:30;;;;;;;;;;;15.50;99.90;;;;;;4995957;28;19909;-87
2022/09/28 11:48:11;;;;;;;;;;;15.40;99.90;;;;;;4996400;28;20411;-88
2022/09/28 11:50:46;;;;;;;;;;;15.50;99.90;;;;;;4995417;28;19929;-87
2022/09/28 11:53:15;;;;;;;;;;;15.50;99.90;;;;;;4996020;28;19916;-87
2022/09/28 11:55:43;;;;;;;;;;;15.60;99.90;;;;;;4995889;28;19914;-87
2022/09/28 11:58:11;;;;;;;;;;;15.50;99.90;;;;;;4996107;28;19913;-87
2022/09/28 12:00:42;;;;;;;;;;;15.60;99.90;;;;;;5013392;28;19909;-87
2022/09/28 12:03:17;;;;;;;;;;;15.50;99.90;;;;;;5013885;28;19914;-87
2022/09/28 12:05:51;;;;;;;;;;;15.30;99.90;;;;;;4995961;28;20013;-88
2022/09/28 12:08:24;;;;;;;;;;;15.30;99.90;;;;;;5013713;28;19920;-88
2022/09/28 12:11:03;;;;;;;;;;;15.20;99.90;;;;;;4996044;28;19909;-88
2022/09/28 12:13:33;;;;;;;;;;;15.30;99.90;;;;;;4995759;28;19957;-89
2022/09/28 12:16:03;;;;;;;;;;;15.40;99.90;;;;;;4994897;28;20359;-88
2022/09/28 12:18:47;;;;;;;;;;;15.40;99.90;;;;;;5012722;28;20127;-86
2022/09/28 12:21:31;;;;;;;;;;;15.30;99.90;;;;;;4995351;28;19979;-87
2022/09/28 12:24:17;;;;;;;;;;;15.30;99.90;;;;;;4995242;28;20361;-87
2022/09/28 12:26:47;;;;;;;;;;;15.30;99.90;;;;;;5011879;28;19910;-87
2022/09/28 12:29:14;;;;;;;;;;;15.30;99.90;;;;;;4995639;28;19910;-87
2022/09/28 12:31:49;;;;;;;;;;;15.30;99.90;;;;;;4995493;28;19932;-88
2022/09/28 12:34:15;;;;;;;;;;;15.40;99.90;;;;;;4995470;28;20391;-88
2022/09/28 12:36:40;;;;;;;;;;;15.40;99.90;;;;;;5012393;28;19921;-87
2022/09/28 12:39:11;;;;;;;;;;;15.40;99.90;;;;;;4995735;28;19997;-88
2022/09/28 12:41:38;;;;;;;;;;;15.40;99.90;;;;;;4995442;28;19914;-87
2022/09/28 12:44:16;;;;;;;;;;;15.50;99.90;;;;;;4995686;28;20296;-88
2022/09/28 12:46:57;;;;;;;;;;;15.60;99.90;;;;;;4995088;28;19909;-87
2022/09/28 12:49:28;;;;;;;;;;;15.60;99.90;;;;;;4995369;28;19910;-87
2022/09/28 12:51:59;;;;;;;;;;;15.70;99.90;;;;;;4995279;28;19910;-87
2022/09/28 12:54:43;;;;;;;;;;;15.60;99.90;;;;;;5012785;28;19941;-87
2022/09/28 12:57:11;;;;;;;;;;;15.60;99.90;;;;;;5012400;28;19920;-87
2022/09/28 12:59:51;;;;;;;;;;;15.50;99.90;;;;;;5012686;28;19917;-87
2022/09/28 13:02:20;;;;;;;;;;;15.40;99.90;;;;;;4996422;28;19909;-87
2022/09/28 13:04:58;;;;;;;;;;;15.40;99.90;;;;;;4998753;28;20008;-87
2022/09/28 13:07:26;;;;;;;;;;;15.40;99.90;;;;;;4999705;28;19910;-86
2022/09/28 13:10:04;;;;;;;;;;;15.40;99.90;;;;;;5009289;28;19905;-88
2022/09/28 13:12:29;;;;;;;;;;;15.30;99.90;;;;;;4998871;28;20009;-87
2022/09/28 13:15:04;;;;;;;;;;;15.30;99.90;;;;;;5015831;28;20334;-86
2022/09/28 13:17:44;;;;;;;;;;;15.00;99.90;;;;;;4997803;28;19914;-88
2022/09/28 13:20:22;;;;;;;;;;;14.70;99.90;;;;;;5015708;28;20000;-87
2022/09/28 13:22:55;;;;;;;;;;;14.40;99.90;;;;;;4998267;28;20291;-86
2022/09/28 13:25:22;;;;;;;;;;;14.20;99.90;;;;;;4997915;28;19909;-86
2022/09/28 13:27:53;;;;;;;;;;;14.20;99.90;;;;;;4998092;28;20364;-86
2022/09/28 13:30:19;;;;;;;;;;;14.20;99.90;;;;;;5015477;28;19913;-86
2022/09/28 13:32:46;;;;;;;;;;;14.30;99.90;;;;;;4997886;28;19924;-86
2022/09/28 13:35:18;;;;;;;;;;;14.20;99.90;;;;;;4997786;28;19914;-86
2022/09/28 13:37:44;;;;;;;;;;;14.20;99.90;;;;;;4997561;28;19917;-86
2022/09/28 13:40:10;;;;;;;;;;;14.10;99.90;;;;;;4997782;28;20298;-86
2022/09/28 13:42:44;;;;;;;;;;;14.20;99.90;;;;;;4997789;28;19909;-86
2022/09/28 13:45:13;;;;;;;;;;;14.30;99.90;;;;;;4997565;28;19920;-86
2022/09/28 13:47:38;;;;;;;;;;;14.40;99.90;;;;;;4997288;28;19963;-86
2022/09/28 13:50:16;;;;;;;;;;;14.50;99.90;;;;;;4997507;28;20344;-86
2022/09/28 13:52:42;;;;;;;;;;;14.50;99.90;;;;;;5015241;28;19909;-86
2022/09/28 13:55:26;;;;;;;;;;;14.60;99.90;;;;;;5014975;28;19913;-86
2022/09/28 13:57:58;;;;;;;;;;;14.70;99.90;;;;;;4997024;28;19920;-86
2022/09/28 14:00:26;;;;;;;;;;;14.70;99.90;;;;;;4997472;28;19960;-87
2022/09/28 14:02:54;;;;;;;;;;;14.80;99.90;;;;;;4997364;28;19909;-87
2022/09/28 14:05:25;;;;;;;;;;;14.90;99.90;;;;;;4997086;28;19963;-87
2022/09/28 14:08:12;;;;;;;;;;;14.90;99.90;;;;;;4997055;28;20378;-86
2022/09/28 14:10:50;;;;;;;;;;;14.90;99.90;;;;;;4997094;28;19910;-87
2022/09/28 14:13:34;;;;;;;;;;;14.80;99.90;;;;;;4996658;28;20467;-88
2022/09/28 14:16:19;;;;;;;;;;;14.80;99.90;;;;;;4996767;28;19910;-87
2022/09/28 14:18:48;;;;;;;;;;;14.80;99.90;;;;;;5014457;28;19983;-87
2022/09/28 14:21:23;;;;;;;;;;;14.70;99.90;;;;;;5014489;28;19909;-87
2022/09/28 14:24:00;;;;;;;;;;;14.60;99.90;;;;;;4997023;28;20004;-86
2022/09/28 14:26:40;;;;;;;;;;;14.50;99.90;;;;;;5014228;28;19914;-87
2022/09/28 14:29:27;;;;;;;;;;;14.40;99.90;;;;;;4996819;28;20387;-87
2022/09/28 14:31:54;;;;;;;;;;;14.30;99.90;;;;;;4996870;28;19910;-86
2022/09/28 14:34:43;;;;;;;;;;;14.10;99.90;;;;;;4996849;28;19910;-87
2022/09/28 14:43:33;;;;;;;;;;;13.70;99.90;;;;;;4994975;28;19991;-86
2022/09/28 14:48:56;;;;;;;;;;;13.20;99.90;;;;;;5014663;28;19976;-85